Becker, MN

5:36 AM CST on December 04, 2016 (GMT -0600)
Becker-PW | | Change Station

Elev 974 ft 45.41 °N, 93.90 °W | Updated 2 minutes ago

Light Snow
Light Snow
33.1 °F
Feels Like 23 °F
N
16.5
Wind Variable Wind from SSE
Gusts 17.1 mph

Today
High -- | Low -- °F
--% Chance of Precip.
Yesterday
High -- | Low -- °F
Precip. -- in
Pressure 29.94 in
Visibility 4.0 miles
Clouds Overcast 500 ft
Windchill 23 °F
Dew Point 32 °F
Humidity 94%
Rainfall 0.09 in
Snow Depth Not available.
7:38 AM 4:33 PM
Waxing Crescent, 22% visible
METAR KMGG 041114Z AUTO 14007KT 4SM -SN OVC005 01/00 A2994 RMK AO2 T00070004
Pressure 29.94 in
Visibility 4.0 miles
Clouds Overcast 500 ft
Windchill 23 °F
Dew Point 32 °F
Humidity 94%
Rainfall 0.09 in
Snow Depth Not available.
7:38 AM 4:33 PM
Waxing Crescent, 22% visible
METAR KMGG 041114Z AUTO 14007KT 4SM -SN OVC005 01/00 A2994 RMK AO2 T00070004

10-Day Weather Forecast

Almanac

Astronomy

Dec. 04, 2016 Rise Set
Actual Time
Civil Twilight
Nautical Twilight
Astronomical Twilight
Moon
Length of Visible Light
Length of Day
Tomorrow will be .
, % of the Moon is Illuminated

Today's Extremes

State Highs State Lows

Community

WunderPhotos

Upload Photos

1,955,593 photos uploaded!

WunderBlog® & News

Nearby

Air Quality

  Air Quality AQ Index Pollutant
Not available.

Snow Depth

Station Depth Elevation

Earthquake Activity

City Distance Mag. Time & Date
Minimum magnitude displayed is 2.5.

Coastal Water Temperatures

Place Temperature

Stations

Nearby Weather Stations

Station Location Temp. Windchill Dew Point Humidity Wind Precip. Elev Updated Type
                   

Watches & Warnings

There are currently no watches in effect.